Météo Nord-Pas-de-Calais   La météo au plus près de chez vous

Station météorologique

Observations météo à Peyrelevade (19164)

19164001 827 m Dernier relevé à 21:06
20.2°C
Humidité 57 % Vent 6.1 km/h

Journée consultée

Samedi 5 Septembre 2026

Synthèse de la journée

Périodes de référence en UTC

Température maximale

28.3°C

à 17:00

06h 06h

Température minimale

10°C

à 05:54

18h 18h

Rafale maximale

21 km/h

à 15:12

00h 00h

Précipitations

0 mm

Cumul quotidien

06h 06h

Graphiques de la journée

Heure locale Réduire

Données détaillées

Relevés météo

Pas de 6 minutes Afficher les relevés infra-horaires
Relevés météo détaillés à Peyrelevade pour le Samedi 5 Septembre 2026
Heure Température °C Point de rosée °C Humidité % Vent moyen (raf.), km/h Précipitations mm Hauteur neige cm
21:06 20.2 °C 13.6 °C 66 % 5 km/h (12 km/h) 0 mm0 mm 0 cm
21:00 20.5 °C 13.7 °C 65 % 5 km/h (10 km/h) 0 mm0 mm 0 cm
20:54 20.7 °C 13.6 °C 64 % 5 km/h (9 km/h) 0 mm0 mm 0 cm
20:48 21 °C 13.7 °C 63 % 6 km/h (12 km/h) 0 mm0 mm 0 cm
20:42 21.2 °C 13.6 °C 62 % 6 km/h (12 km/h) 0 mm0 mm 0 cm
20:36 21.5 °C 13.7 °C 61 % 6 km/h (10 km/h) 0 mm0 mm 0 cm
20:30 21.6 °C 13.8 °C 61 % 6 km/h (9 km/h) 0 mm0 mm 0 cm
20:24 22 °C 13.9 °C 60 % 6 km/h (9 km/h) 0 mm0 mm 0 cm
20:18 22.2 °C 13.8 °C 59 % 5 km/h (8 km/h) 0 mm0 mm 0 cm
20:12 22.5 °C 14.1 °C 59 % 6 km/h (9 km/h) 0 mm0 mm 0 cm
20:06 22.9 °C 13.9 °C 57 % 6 km/h (10 km/h) 0 mm0 mm 0 cm
20:00 23 °C 14 °C 57 % 6 km/h (10 km/h) 0 mm0 mm 0 cm
19:54 23.2 °C 14.2 °C 57 % 6 km/h (11 km/h) 0 mm0 mm 0 cm
19:48 23.4 °C 14.1 °C 56 % 6 km/h (11 km/h) 0 mm0 mm 0 cm
19:42 23.7 °C 14.1 °C 55 % 7 km/h (11 km/h) 0 mm0 mm 0 cm
19:36 24.1 °C 13.9 °C 53 % 8 km/h (13 km/h) 0 mm0 mm 0 cm
19:30 24.3 °C 13.8 °C 52 % 9 km/h (14 km/h) 0 mm0 mm 0 cm
19:24 24.7 °C 13.6 °C 50 % 7 km/h (14 km/h) 0 mm0 mm 0 cm
19:18 25.1 °C 13 °C 47 % 5 km/h (9 km/h) 0 mm0 mm 0 cm
19:12 25.2 °C 12.8 °C 46 % 5 km/h (11 km/h) 0 mm0 mm 0 cm
19:06 25.3 °C 13.2 °C 47 % 6 km/h (12 km/h) 0 mm0 mm 0 cm
19:00 25.4 °C 13.3 °C 47 % 7 km/h (14 km/h) 0 mm0 mm 0 cm
18:54 25.7 °C 13.5 °C 47 % 4 km/h (14 km/h) 0 mm0 mm 0 cm
18:48 26.1 °C 13.6 °C 46 % 5 km/h (13 km/h) 0 mm0 mm 0 cm
18:42 26.4 °C 12.1 °C 41 % 6 km/h (13 km/h) 0 mm0 mm 0 cm
18:36 27.1 °C 11.9 °C 39 % 5 km/h (12 km/h) 0 mm0 mm
18:30 27.4 °C 12.2 °C 39 % 4 km/h (12 km/h) 0 mm0 mm
18:24 27.3 °C 12.1 °C 39 % 5 km/h (12 km/h) 0 mm0 mm 0 cm
18:18 27.5 °C 12.7 °C 40 % 6 km/h (12 km/h) 0 mm0 mm 0 cm
18:12 27.2 °C 10.4 °C 35 % 4 km/h (11 km/h) 0 mm0 mm 0 cm
18:06 27.8 °C 13 °C 40 % 3 km/h (11 km/h) 0 mm0 mm 0 cm
18:00 27.3 °C 12.5 °C 40 % 5 km/h (11 km/h) 0 mm0 mm 0 cm
17:54 27.7 °C 13.2 °C 41 % 4 km/h (11 km/h) 0 mm0 mm 0 cm
17:48 27.2 °C 12.4 °C 40 % 3 km/h (9 km/h) 0 mm0 mm 0 cm
17:42 27 °C 11.5 °C 38 % 5 km/h (12 km/h) 0 mm0 mm 0 cm
17:36 27.2 °C 12 °C 39 % 7 km/h (14 km/h) 0 mm0 mm 0 cm
17:30 27.5 °C 12.7 °C 40 % 5 km/h (17 km/h) 0 mm0 mm 0 cm
17:24 27.4 °C 12.6 °C 40 % 5 km/h (13 km/h) 0 mm0 mm 0 cm
17:18 27.1 °C 12.3 °C 40 % 6 km/h (15 km/h) 0 mm0 mm 0 cm
17:12 27 °C 11.9 °C 39 % 6 km/h (16 km/h) 0 mm0 mm 0 cm
17:06 27.1 °C 11.6 °C 38 % 6 km/h (16 km/h) 0 mm0 mm 0 cm
17:00 27.6 °C 12 °C 38 % 6 km/h (13 km/h) 0 mm0 mm 0 cm
16:54 27.8 °C 12.2 °C 38 % 6 km/h (14 km/h) 0 mm0 mm 0 cm
16:48 27.5 °C 11.5 °C 37 % 7 km/h (17 km/h) 0 mm0 mm 0 cm
16:42 28.2 °C 12.1 °C 37 % 5 km/h (13 km/h) 0 mm0 mm 0 cm
16:36 27.9 °C 11.9 °C 37 % 5 km/h (14 km/h) 0 mm0 mm 0 cm
16:30 27.9 °C 12.7 °C 39 % 6 km/h (17 km/h) 0 mm0 mm 0 cm
16:24 27.8 °C 13 °C 40 % 8 km/h (17 km/h) 0 mm0 mm 0 cm
16:18 27.6 °C 12.4 °C 39 % 8 km/h (17 km/h) 0 mm0 mm 0 cm
16:12 27.9 °C 13.8 °C 42 % 5 km/h (15 km/h) 0 mm0 mm 0 cm
16:06 27.1 °C 13.8 °C 44 % 6 km/h (15 km/h) 0 mm0 mm 0 cm
16:00 27 °C 12.6 °C 41 % 9 km/h (17 km/h) 0 mm0 mm 0 cm
15:54 27.4 °C 13 °C 41 % 10 km/h (18 km/h) 0 mm0 mm 0 cm
15:48 27.3 °C 13.3 °C 42 % 8 km/h (16 km/h) 0 mm0 mm 0 cm
15:42 27.2 °C 13.2 °C 42 % 8 km/h (17 km/h) 0 mm0 mm 0 cm
15:36 26.9 °C 12.2 °C 40 % 9 km/h (17 km/h) 0 mm0 mm 0 cm
15:30 27.5 °C 12.3 °C 39 % 6 km/h (15 km/h) 0 mm0 mm 0 cm
15:24 27.5 °C 13.1 °C 41 % 7 km/h (19 km/h) 0 mm0 mm 0 cm
15:18 27.3 °C 12.9 °C 41 % 6 km/h (18 km/h) 0 mm0 mm 0 cm
15:12 27 °C 12.6 °C 41 % 8 km/h (21 km/h) 0 mm0 mm 0 cm
15:06 26.8 °C 12.1 °C 40 % 9 km/h (17 km/h) 0 mm0 mm 0 cm
15:00 27.1 °C 13.1 °C 42 % 7 km/h (16 km/h) 0 mm0 mm 0 cm
14:54 27.2 °C 13.2 °C 42 % 8 km/h (16 km/h) 0 mm0 mm 0 cm
14:48 27.2 °C 12.8 °C 41 % 8 km/h (17 km/h) 0 mm0 mm 0 cm
14:42 26.8 °C 12.8 °C 42 % 8 km/h (17 km/h) 0 mm0 mm 0 cm
14:36 26.7 °C 13.1 °C 43 % 9 km/h (18 km/h) 0 mm0 mm 0 cm
14:30 26.7 °C 13.1 °C 43 % 9 km/h (19 km/h) 0 mm0 mm 0 cm
14:24 26.6 °C 13.3 °C 44 % 8 km/h (16 km/h) 0 mm0 mm 0 cm
14:18 26.5 °C 12.5 °C 42 % 8 km/h (15 km/h) 0 mm0 mm 0 cm
14:12 26.6 °C 11.9 °C 40 % 5 km/h (17 km/h) 0 mm0 mm 0 cm
14:06 26.3 °C 12.4 °C 42 % 8 km/h (17 km/h) 0 mm0 mm 0 cm
14:00 26.6 °C 13 °C 43 % 7 km/h (16 km/h) 0 mm0 mm 0 cm
13:54 26.2 °C 13 °C 44 % 9 km/h (20 km/h) 0 mm0 mm 0 cm
13:48 26.4 °C 12.8 °C 43 % 7 km/h (20 km/h) 0 mm0 mm 0 cm
13:42 26.2 °C 13 °C 44 % 7 km/h (18 km/h) 0 mm0 mm 0 cm
13:36 26.3 °C 13.1 °C 44 % 7 km/h (18 km/h) 0 mm0 mm 0 cm
13:30 26.3 °C 13.1 °C 44 % 7 km/h (19 km/h) 0 mm0 mm 0 cm
13:24 25.8 °C 13.3 °C 46 % 7 km/h (17 km/h) 0 mm0 mm 0 cm
13:18 25.8 °C 13.3 °C 46 % 8 km/h (17 km/h) 0 mm0 mm 0 cm
13:12 25.9 °C 13.4 °C 46 % 6 km/h (17 km/h) 0 mm0 mm 0 cm
13:06 25.8 °C 13.3 °C 46 % 5 km/h (11 km/h) 0 mm0 mm 0 cm
13:00 25.6 °C 12.1 °C 43 % 5 km/h (15 km/h) 0 mm0 mm 0 cm
12:54 25.7 °C 12.5 °C 44 % 7 km/h (17 km/h) 0 mm0 mm 0 cm
12:48 25.9 °C 12.7 °C 44 % 5 km/h (17 km/h) 0 mm0 mm 0 cm
12:42 25.4 °C 12.6 °C 45 % 5 km/h (11 km/h) 0 mm0 mm 0 cm
12:36 24.6 °C 12.5 °C 47 % 7 km/h (13 km/h) 0 mm0 mm 0 cm
12:30 24.2 °C 12.2 °C 47 % 8 km/h (16 km/h) 0 mm0 mm 0 cm
12:24 24.6 °C 12.2 °C 46 % 6 km/h (15 km/h) 0 mm0 mm 0 cm
12:18 24.7 °C 12 °C 45 % 7 km/h (18 km/h) 0 mm0 mm 0 cm
12:12 24.6 °C 12.5 °C 47 % 5 km/h (18 km/h) 0 mm0 mm 0 cm
12:06 24.3 °C 12.3 °C 47 % 4 km/h (13 km/h) 0 mm0 mm 0 cm
12:00 24 °C 12.9 °C 50 % 4 km/h (10 km/h) 0 mm0 mm 0 cm
11:54 23.3 °C 12.6 °C 51 % 6 km/h (11 km/h) 0 mm0 mm 0 cm
11:48 23.1 °C 13 °C 53 % 5 km/h (11 km/h) 0 mm0 mm 0 cm
11:42 22.9 °C 12.5 °C 52 % 6 km/h (11 km/h) 0 mm0 mm 0 cm
11:36 23.3 °C 12.3 °C 50 % 6 km/h (12 km/h) 0 mm0 mm 0 cm
11:30 23.6 °C 12.3 °C 49 % 6 km/h (14 km/h) 0 mm0 mm 0 cm
11:24 23.3 °C 12.6 °C 51 % 6 km/h (14 km/h) 0 mm0 mm 0 cm
11:18 23.1 °C 13.3 °C 54 % 5 km/h (11 km/h) 0 mm0 mm 0 cm
11:12 22.8 °C 13.6 °C 56 % 6 km/h (12 km/h) 0 mm0 mm 0 cm
11:06 22.6 °C 13.4 °C 56 % 5 km/h (11 km/h) 0 mm0 mm 0 cm
11:00 22.6 °C 13.1 °C 55 % 3 km/h (8 km/h) 0 mm0 mm 0 cm
10:54 22.2 °C 12.4 °C 54 % 4 km/h (9 km/h) 0 mm0 mm 0 cm
10:48 22 °C 12.8 °C 56 % 5 km/h (12 km/h) 0 mm0 mm 0 cm
10:42 21.8 °C 12.9 °C 57 % 5 km/h (11 km/h) 0 mm0 mm 0 cm
10:36 21.7 °C 12.8 °C 57 % 5 km/h (11 km/h) 0 mm0 mm 0 cm
10:30 21.9 °C 13 °C 57 % 6 km/h (11 km/h) 0 mm0 mm 0 cm
10:24 21.7 °C 12 °C 54 % 6 km/h (11 km/h) 0 mm0 mm 0 cm
10:18 21.9 °C 12.4 °C 55 % 5 km/h (10 km/h) 0 mm0 mm 0 cm
10:12 21.8 °C 12.6 °C 56 % 4 km/h (9 km/h) 0 mm0 mm 0 cm
10:06 21.5 °C 12.6 °C 57 % 3 km/h (10 km/h) 0 mm0 mm 0 cm
10:00 21.2 °C 12.9 °C 59 % 3 km/h (7 km/h) 0 mm0 mm 0 cm
09:54 20.9 °C 13.6 °C 63 % 3 km/h (7 km/h) 0 mm0 mm 0 cm
09:48 20.8 °C 13.5 °C 63 % 3 km/h (10 km/h) 0 mm0 mm 0 cm
09:42 20.7 °C 12.9 °C 61 % 2 km/h (10 km/h) 0 mm0 mm 0 cm
09:36 20.1 °C 14.7 °C 71 % 2 km/h (5 km/h) 0 mm0 mm 0 cm
09:30 20 °C 14.8 °C 72 % 2 km/h (5 km/h) 0 mm0 mm 0 cm
09:24 19.8 °C 14.8 °C 73 % 0 km/h (4 km/h) 0 mm0 mm 0 cm
09:18 18.6 °C 14.7 °C 78 % 2 km/h (4 km/h) 0 mm0 mm 0 cm
09:12 18.1 °C 15.2 °C 83 % 2 km/h (4 km/h) 0 mm0 mm 0 cm
09:06 17.1 °C 14.4 °C 84 % 3 km/h (6 km/h) 0 mm0 mm 0 cm
09:00 16.2 °C 13.5 °C 84 % 4 km/h (6 km/h) 0 mm0 mm 0 cm
08:54 15.4 °C 13.1 °C 86 % 4 km/h (6 km/h) 0 mm0 mm 0 cm
08:48 14.9 °C 12 °C 83 % 3 km/h (5 km/h) 0 mm0 mm 0 cm
08:42 14.9 °C 12 °C 83 % 4 km/h (6 km/h) 0 mm0 mm 0 cm
08:36 14.6 °C 13.1 °C 91 % 4 km/h (6 km/h) 0 mm0 mm 0 cm
08:30 13.8 °C 12.7 °C 93 % 4 km/h (6 km/h) 0 mm0 mm 0 cm
08:24 13 °C 12.2 °C 95 % 3 km/h (6 km/h) 0 mm0 mm 0 cm
08:18 12.4 °C 12.2 °C 99 % 3 km/h (5 km/h) 0 mm0 mm 0 cm
08:12 11.7 °C 11.7 °C 100 % 4 km/h (7 km/h) 0 mm0 mm 0 cm
08:06 11.1 °C 10.9 °C 99 % 6 km/h (9 km/h) 0 mm0 mm 0 cm
08:00 10.9 °C 10.3 °C 96 % 6 km/h (9 km/h) 0 mm0 mm 0 cm
07:54 11.1 °C 9.8 °C 92 % 4 km/h (6 km/h) 0 mm0 mm 0 cm
07:48 11.4 °C 10.5 °C 94 % 3 km/h (4 km/h) 0 mm0 mm 0 cm
07:42 11.5 °C 11.3 °C 99 % 4 km/h (6 km/h) 0 mm0 mm 0 cm
07:36 11.2 °C 11.2 °C 100 % 4 km/h (6 km/h) 0 mm0 mm 0 cm
07:30 11 °C 10.5 °C 97 % 3 km/h (5 km/h) 0 mm0 mm 0 cm
07:24 11 °C 11 °C 100 % 3 km/h (7 km/h) 0 mm0 mm 0 cm
07:18 10.7 °C 10.4 °C 98 % 5 km/h (10 km/h) 0 mm0 mm 0 cm
07:12 10.8 °C 10.8 °C 100 % 6 km/h (10 km/h) 0 mm0 mm 0 cm
07:06 10.7 °C 10.4 °C 98 % 4 km/h (9 km/h) 0 mm0 mm 0 cm
07:00 10.6 °C 10 °C 96 % 5 km/h (9 km/h) 0 mm0 mm 0 cm
06:54 10.7 °C 10.1 °C 96 % 6 km/h (11 km/h) 0 mm0 mm 0 cm
06:48 10.8 °C 10 °C 95 % 5 km/h (11 km/h) 0 mm0 mm 0 cm
06:42 11 °C 10.5 °C 97 % 4 km/h (8 km/h) 0 mm0 mm 0 cm
06:36 10.9 °C 10.6 °C 98 % 5 km/h (8 km/h) 0 mm0 mm 0 cm
06:30 11 °C 10.8 °C 99 % 6 km/h (10 km/h) 0 mm0 mm 0 cm
06:24 10.8 °C 10.5 °C 98 % 7 km/h (10 km/h) 0 mm0 mm 0 cm
06:18 10.4 °C 9.6 °C 95 % 5 km/h (10 km/h) 0 mm0 mm 0 cm
06:12 10.5 °C 10.5 °C 100 % 7 km/h (10 km/h) 0 mm0 mm 0 cm
06:06 10 °C 9.5 °C 97 % 6 km/h (9 km/h) 0 mm0 mm 0 cm
06:00 10 °C 9.5 °C 97 % 5 km/h (9 km/h) 0 mm0 mm 0 cm
05:54 10 °C 9.2 °C 95 % 5 km/h (8 km/h) 0 mm0 mm 0 cm
05:48 10.1 °C 9.2 °C 94 % 6 km/h (8 km/h) 0 mm0 mm 0 cm
05:42 10.2 °C 9.7 °C 97 % 6 km/h (8 km/h) 0 mm0 mm 0 cm
05:36 10.1 °C 9.3 °C 95 % 6 km/h (8 km/h) 0 mm0 mm 0 cm
05:30 10.2 °C 9 °C 92 % 5 km/h (8 km/h) 0 mm0 mm 0 cm
05:24 10.4 °C 8.5 °C 88 % 4 km/h (5 km/h) 0 mm0 mm 0 cm
05:18 10.7 °C 9 °C 89 % 4 km/h (6 km/h) 0 mm0 mm 0 cm
05:12 11 °C 9.4 °C 90 % 4 km/h (6 km/h) 0 mm0 mm 0 cm
05:06 11 °C 9.6 °C 91 % 3 km/h (5 km/h) 0 mm0 mm 0 cm
05:00 11.1 °C 9.7 °C 91 % 4 km/h (7 km/h) 0 mm0 mm 0 cm
04:54 10.7 °C 9.3 °C 91 % 5 km/h (8 km/h) 0 mm0 mm 0 cm
04:48 10.6 °C 9 °C 90 % 5 km/h (9 km/h) 0 mm0 mm 0 cm
04:42 10.5 °C 8.9 °C 90 % 6 km/h (9 km/h) 0 mm0 mm 0 cm
04:36 10.3 °C 8.7 °C 90 % 6 km/h (9 km/h) 0 mm0 mm 0 cm
04:30 10.4 °C 8.7 °C 89 % 6 km/h (9 km/h) 0 mm0 mm 0 cm
04:24 10.6 °C 8.7 °C 88 % 5 km/h (9 km/h) 0 mm0 mm 0 cm
04:18 10.6 °C 8.9 °C 89 % 5 km/h (8 km/h) 0 mm0 mm 0 cm
04:12 10.5 °C 8.8 °C 89 % 4 km/h (9 km/h) 0 mm0 mm 0 cm
04:06 10.6 °C 8.5 °C 87 % 5 km/h (9 km/h) 0 mm0 mm 0 cm
04:00 10.8 °C 8.6 °C 86 % 4 km/h (7 km/h) 0 mm0 mm 0 cm
03:54 10.9 °C 8.8 °C 87 % 4 km/h (8 km/h) 0 mm0 mm 0 cm
03:48 10.9 °C 8.5 °C 85 % 5 km/h (8 km/h) 0 mm0 mm 0 cm
03:42 11.1 °C 8.7 °C 85 % 5 km/h (9 km/h) 0 mm0 mm 0 cm
03:36 11.1 °C 9 °C 87 % 4 km/h (8 km/h) 0 mm0 mm 0 cm
03:30 10.8 °C 8.4 °C 85 % 5 km/h (8 km/h) 0 mm0 mm 0 cm
03:24 11.1 °C 8.5 °C 84 % 5 km/h (9 km/h) 0 mm0 mm 0 cm
03:18 11.3 °C 8.9 °C 85 % 6 km/h (9 km/h) 0 mm0 mm 0 cm
03:12 10.9 °C 8.6 °C 86 % 5 km/h (9 km/h) 0 mm0 mm 0 cm
03:06 11.1 °C 8.7 °C 85 % 4 km/h (8 km/h) 0 mm0 mm 0 cm
03:00 11.2 °C 8.6 °C 84 % 3 km/h (5 km/h) 0 mm0 mm 0 cm
02:54 11.5 °C 8.5 °C 82 % 4 km/h (8 km/h) 0 mm0 mm 0 cm
02:48 12 °C 8.8 °C 81 % 5 km/h (8 km/h) 0 mm0 mm 0 cm
02:42 12 °C 9 °C 82 % 4 km/h (6 km/h) 0 mm0 mm 0 cm
02:36 11.7 °C 9.1 °C 84 % 4 km/h (8 km/h) 0 mm0 mm 0 cm
02:30 11.7 °C 8.9 °C 83 % 6 km/h (10 km/h) 0 mm0 mm 0 cm
02:24 12 °C 9 °C 82 % 6 km/h (10 km/h) 0 mm0 mm 0 cm
02:18 12.2 °C 9.2 °C 82 % 5 km/h (6 km/h) 0 mm0 mm 0 cm
02:12 12 °C 9 °C 82 % 4 km/h (6 km/h) 0 mm0 mm 0 cm
02:06 11.9 °C 9.1 °C 83 % 4 km/h (6 km/h) 0 mm0 mm 0 cm
02:00 11.8 °C 9 °C 83 % 4 km/h (6 km/h) 0 mm0 mm 0 cm
01:54 11.9 °C 9.3 °C 84 % 4 km/h (7 km/h) 0 mm0 mm 0 cm
01:48 11.7 °C 9.1 °C 84 % 5 km/h (8 km/h) 0 mm0 mm 0 cm
01:42 11.6 °C 9 °C 84 % 6 km/h (8 km/h) 0 mm0 mm 0 cm
01:36 11.7 °C 8.7 °C 82 % 6 km/h (8 km/h) 0 mm0 mm 0 cm
01:30 12 °C 9 °C 82 % 5 km/h (7 km/h) 0 mm0 mm 0 cm
01:24 11.9 °C 9.1 °C 83 % 4 km/h (6 km/h) 0 mm0 mm 0 cm
01:18 11.9 °C 8.9 °C 82 % 4 km/h (6 km/h) 0 mm0 mm 0 cm
01:12 12.1 °C 8.9 °C 81 % 4 km/h (6 km/h) 0 mm0 mm 0 cm
01:06 12.2 °C 9.2 °C 82 % 4 km/h (6 km/h) 0 mm0 mm 0 cm
01:00 12.1 °C 8.8 °C 80 % 4 km/h (6 km/h) 0 mm0 mm 0 cm
00:54 12.5 °C 8.8 °C 78 % 3 km/h (5 km/h) 0 mm0 mm 0 cm
00:48 12.8 °C 8.9 °C 77 % 4 km/h (6 km/h) 0 mm0 mm 0 cm
00:42 13 °C 8.9 °C 76 % 4 km/h (6 km/h) 0 mm0 mm 0 cm
00:36 13 °C 8.9 °C 76 % 4 km/h (6 km/h) 0 mm0 mm 0 cm
00:30 13.2 °C 8.9 °C 75 % 4 km/h (6 km/h) 0 mm0 mm 0 cm
00:24 13.2 °C 8.9 °C 75 % 4 km/h (6 km/h) 0 mm0 mm 0 cm
00:18 13.4 °C 8.9 °C 74 % 4 km/h (7 km/h) 0 mm0 mm 0 cm
00:12 13.6 °C 8.8 °C 73 % 4 km/h (7 km/h) 0 mm0 mm 0 cm
00:06 13.7 °C 8.7 °C 72 % 5 km/h (6 km/h) 0 mm0 mm 0 cm
00:00 13.7 °C 8.7 °C 72 % 5 km/h (7 km/h) 0 mm0 mm 0 cm

Données via Météo-France

Relevés météo à Peyrelevade

Cette page rassemble les observations de la station de Peyrelevade : température, humidité, vent, précipitations et pression atmosphérique. Les graphiques facilitent le suivi de la journée, tandis que le tableau donne accès aux mesures horaires et infra-horaires disponibles.

Pour replacer ces mesures dans leur contexte, consultez la climatologie de Peyrelevade ainsi que ses normales et records. Retrouvez aussi la carte des observations météo en temps réel.